createdAt,value
2018-12-17T00:00:30.896Z,0.22
2018-12-17T00:02:58.543Z,0.26
2018-12-17T00:05:26.096Z,0.23
2018-12-17T00:07:53.695Z,0.28
2018-12-17T00:10:21.355Z,0.30
2018-12-17T00:12:48.971Z,0.37
2018-12-17T00:15:16.569Z,0.43
2018-12-17T00:17:44.200Z,0.42
2018-12-17T00:20:11.798Z,0.36
2018-12-17T00:22:39.416Z,0.31
2018-12-17T00:25:07.078Z,0.29
2018-12-17T00:27:34.706Z,0.26
2018-12-17T00:30:02.357Z,0.21
2018-12-17T00:32:30.019Z,0.21
2018-12-17T00:34:57.590Z,0.19
2018-12-17T00:37:25.188Z,0.21
2018-12-17T00:39:52.751Z,0.14
2018-12-17T00:42:20.728Z,0.19
2018-12-17T00:44:48.649Z,0.19
2018-12-17T00:47:16.237Z,0.23
2018-12-17T00:49:43.786Z,0.28
2018-12-17T00:52:11.383Z,0.30
2018-12-17T00:54:38.972Z,0.27
2018-12-17T00:57:06.706Z,0.27
2018-12-17T00:59:34.269Z,0.21
2018-12-17T01:02:01.885Z,0.18
2018-12-17T01:04:29.487Z,0.17
2018-12-17T01:06:57.090Z,0.06
2018-12-17T01:09:24.704Z,0.13
2018-12-17T01:11:52.622Z,0.21
2018-12-17T01:14:20.208Z,0.23
2018-12-17T01:16:47.780Z,0.32
2018-12-17T01:19:15.373Z,0.45
2018-12-17T01:21:43.445Z,0.50
2018-12-17T01:24:11.017Z,0.49
2018-12-17T01:26:39.067Z,0.50
2018-12-17T01:29:06.643Z,0.54
2018-12-17T01:31:34.542Z,0.57
2018-12-17T01:34:02.122Z,0.54
2018-12-17T01:36:29.760Z,0.47
2018-12-17T01:38:57.342Z,0.47
2018-12-17T01:41:25.224Z,0.45
2018-12-17T01:43:52.811Z,0.49
2018-12-17T01:46:20.440Z,0.50
2018-12-17T01:48:48.023Z,0.52
2018-12-17T01:51:15.684Z,0.56
2018-12-17T01:53:43.251Z,0.54
2018-12-17T01:56:10.901Z,0.61
2018-12-17T01:58:38.494Z,0.60
2018-12-17T02:01:06.066Z,0.58
2018-12-17T02:03:33.663Z,0.54
2018-12-17T02:06:01.219Z,0.59
2018-12-17T02:08:29.070Z,0.48
2018-12-17T02:10:56.626Z,0.50
2018-12-17T02:13:24.514Z,0.56
2018-12-17T02:15:52.046Z,0.55
2018-12-17T02:18:19.646Z,0.42
2018-12-17T02:20:47.232Z,0.48
2018-12-17T02:23:14.805Z,0.53
2018-12-17T02:25:42.416Z,0.52
2018-12-17T02:28:10.015Z,0.47
2018-12-17T02:30:37.657Z,0.43
2018-12-17T02:33:05.327Z,0.34
2018-12-17T02:35:32.901Z,0.39
2018-12-17T02:38:00.474Z,0.47
2018-12-17T02:40:28.174Z,0.53
2018-12-17T02:42:55.853Z,0.56
2018-12-17T02:45:23.440Z,0.59
2018-12-17T02:47:51.005Z,0.57
2018-12-17T02:50:18.564Z,0.57
2018-12-17T02:52:46.121Z,0.60
2018-12-17T02:55:13.686Z,0.56
2018-12-17T02:57:41.349Z,0.61
2018-12-17T03:00:09.068Z,0.60
2018-12-17T03:02:36.644Z,0.60
2018-12-17T03:05:06.095Z,0.57
2018-12-17T03:07:33.652Z,0.58
2018-12-17T03:10:01.216Z,0.52
2018-12-17T03:12:28.811Z,0.31
2018-12-17T03:14:56.801Z,0.15
2018-12-17T03:17:24.675Z,0.19
2018-12-17T03:19:52.238Z,0.18
2018-12-17T03:22:20.122Z,0.21
2018-12-17T03:24:47.746Z,0.29
2018-12-17T03:27:15.350Z,0.30
2018-12-17T03:29:42.954Z,0.33
2018-12-17T03:32:10.525Z,0.36
2018-12-17T03:34:38.132Z,0.32
2018-12-17T03:37:05.981Z,0.36
2018-12-17T03:39:33.555Z,0.40
2018-12-17T03:42:01.207Z,0.47
2018-12-17T03:44:28.813Z,0.50
2018-12-17T03:46:56.401Z,0.53
2018-12-17T03:49:23.999Z,0.53
2018-12-17T03:51:51.659Z,0.55
2018-12-17T03:54:19.221Z,0.51
2018-12-17T03:56:46.838Z,0.58
2018-12-17T03:59:14.766Z,0.61
2018-12-17T04:01:42.359Z,0.59
2018-12-17T04:04:09.902Z,0.59
2018-12-17T04:06:37.508Z,0.60
2018-12-17T04:09:06.521Z,0.62
2018-12-17T04:11:34.055Z,0.60
2018-12-17T04:14:02.062Z,0.60
2018-12-17T04:16:29.627Z,0.63
2018-12-17T04:18:57.210Z,0.63
2018-12-17T04:21:24.751Z,0.67
2018-12-17T04:23:52.392Z,0.67
2018-12-17T04:26:19.969Z,0.67
2018-12-17T04:28:47.967Z,0.55
2018-12-17T04:31:15.503Z,0.60
2018-12-17T04:33:43.087Z,0.59
2018-12-17T04:36:10.705Z,0.46
2018-12-17T04:38:38.275Z,0.54
2018-12-17T04:41:05.844Z,0.52
2018-12-17T04:43:33.397Z,0.59
2018-12-17T04:46:01.083Z,0.57
2018-12-17T04:48:28.934Z,0.60
2018-12-17T04:50:56.562Z,0.54
2018-12-17T04:53:24.148Z,0.56
2018-12-17T04:55:51.750Z,0.63
2018-12-17T04:58:19.589Z,0.63
2018-12-17T05:00:47.167Z,0.69
2018-12-17T05:03:14.805Z,0.72
2018-12-17T05:05:42.383Z,0.76
2018-12-17T05:08:09.978Z,0.78
2018-12-17T05:10:37.574Z,0.81
2018-12-17T05:13:05.136Z,0.82
2018-12-17T05:15:32.783Z,0.84
2018-12-17T05:18:00.533Z,0.80
2018-12-17T05:20:28.171Z,0.74
2018-12-17T05:22:55.745Z,0.77
2018-12-17T05:25:23.344Z,0.63
2018-12-17T05:27:50.910Z,0.64
2018-12-17T05:30:18.516Z,0.68
2018-12-17T05:32:46.099Z,0.71
2018-12-17T05:35:13.796Z,0.76
2018-12-17T05:37:41.405Z,0.83
2018-12-17T05:40:09.113Z,0.84
2018-12-17T05:42:37.292Z,0.85
2018-12-17T05:45:05.593Z,0.82
2018-12-17T05:47:33.150Z,0.85
2018-12-17T05:50:00.765Z,0.78
2018-12-17T05:52:28.367Z,0.71
2018-12-17T05:54:55.957Z,0.60
2018-12-17T05:57:23.537Z,0.55
2018-12-17T05:59:51.115Z,0.56
2018-12-17T06:02:18.720Z,0.50
2018-12-17T06:04:46.319Z,0.57
2018-12-17T06:07:13.924Z,0.50
2018-12-17T06:09:41.626Z,0.55
2018-12-17T06:12:09.254Z,0.56
2018-12-17T06:14:36.864Z,0.52
2018-12-17T06:17:04.484Z,0.54
2018-12-17T06:19:32.365Z,0.57
2018-12-17T06:21:59.986Z,0.61
2018-12-17T06:24:27.662Z,0.66
2018-12-17T06:26:55.307Z,0.59
2018-12-17T06:29:22.907Z,0.64
2018-12-17T06:31:50.530Z,0.63
2018-12-17T06:34:18.236Z,0.58
2018-12-17T06:36:45.872Z,0.52
2018-12-17T06:39:14.829Z,0.51
2018-12-17T06:41:42.585Z,0.56
2018-12-17T06:44:10.208Z,0.63
2018-12-17T06:46:37.866Z,0.69
2018-12-17T06:49:05.455Z,0.74
2018-12-17T06:51:33.351Z,0.76
2018-12-17T06:54:01.302Z,0.85
2018-12-17T06:56:28.915Z,0.70
2018-12-17T06:58:56.537Z,0.71
2018-12-17T07:01:24.114Z,0.66
2018-12-17T07:03:51.708Z,0.71
2018-12-17T07:06:19.243Z,0.68
2018-12-17T07:08:46.859Z,0.71
2018-12-17T07:11:14.538Z,0.72
2018-12-17T07:13:42.115Z,0.69
2018-12-17T07:16:09.829Z,0.71
2018-12-17T07:18:37.732Z,0.76
2018-12-17T07:21:05.271Z,0.75
2018-12-17T07:23:32.867Z,0.79
2018-12-17T07:26:00.440Z,0.76
2018-12-17T07:28:28.043Z,0.83
2018-12-17T07:30:55.673Z,0.88
2018-12-17T07:33:23.319Z,0.86
2018-12-17T07:35:50.950Z,0.88
2018-12-17T07:38:18.611Z,0.91
2018-12-17T07:40:46.249Z,0.95
2018-12-17T07:43:13.808Z,0.99
2018-12-17T07:45:41.398Z,1.04
2018-12-17T07:48:08.964Z,1.08
2018-12-17T07:50:36.514Z,1.03
2018-12-17T07:53:04.143Z,1.05
2018-12-17T07:55:31.681Z,1.09
2018-12-17T07:57:59.269Z,1.14
2018-12-17T08:00:26.850Z,1.15
2018-12-17T08:02:54.416Z,1.18
2018-12-17T08:05:22.025Z,1.15
2018-12-17T08:07:49.563Z,1.09
2018-12-17T08:10:17.512Z,1.06
2018-12-17T08:12:45.074Z,1.12
2018-12-17T08:15:12.679Z,1.06
2018-12-17T08:17:40.260Z,1.06
2018-12-17T08:20:07.946Z,1.06
2018-12-17T08:22:35.661Z,1.07
2018-12-17T08:25:03.610Z,1.09
2018-12-17T08:27:31.204Z,1.18
2018-12-17T08:30:03.933Z,1.26
2018-12-17T08:32:28.740Z,1.33
2018-12-17T08:34:56.399Z,1.38
2018-12-17T08:37:24.068Z,1.34
2018-12-17T08:39:51.675Z,1.41
2018-12-17T08:42:19.236Z,1.37
2018-12-17T08:44:46.817Z,1.36
2018-12-17T08:47:14.403Z,1.39
2018-12-17T08:49:41.986Z,1.44
2018-12-17T08:52:09.611Z,1.51
2018-12-17T08:54:37.151Z,1.60
2018-12-17T08:57:04.952Z,1.58
2018-12-17T08:59:32.747Z,1.68
2018-12-17T09:02:00.290Z,1.74
2018-12-17T09:04:27.936Z,1.73
2018-12-17T09:06:55.494Z,1.75
2018-12-17T09:09:23.094Z,1.68
2018-12-17T09:11:50.660Z,1.71
2018-12-17T09:14:18.511Z,1.72
2018-12-17T09:16:46.170Z,1.77
2018-12-17T09:19:13.764Z,1.71
2018-12-17T09:21:41.669Z,1.77
2018-12-17T09:24:09.401Z,1.70
2018-12-17T09:26:36.981Z,1.74
2018-12-17T09:29:04.638Z,1.75
2018-12-17T09:31:32.241Z,1.76
2018-12-17T09:33:59.850Z,1.82
2018-12-17T09:36:27.427Z,1.86
2018-12-17T09:38:54.980Z,1.92
2018-12-17T09:41:22.609Z,1.97
2018-12-17T09:43:50.195Z,2.06
2018-12-17T09:46:17.868Z,2.17
2018-12-17T09:48:45.587Z,2.21
2018-12-17T09:51:19.356Z,2.26
2018-12-17T09:53:43.263Z,2.22
2018-12-17T09:56:10.844Z,2.30
2018-12-17T09:58:38.438Z,2.28
2018-12-17T10:01:06.228Z,2.32
2018-12-17T10:03:33.910Z,2.38
2018-12-17T10:06:01.490Z,2.38
2018-12-17T10:08:29.110Z,2.32
2018-12-17T10:10:56.692Z,2.40
2018-12-17T10:13:24.708Z,2.44
2018-12-17T10:15:52.297Z,2.39
2018-12-17T10:18:19.909Z,2.46
2018-12-17T10:20:47.550Z,2.51
2018-12-17T10:23:15.126Z,2.43
2018-12-17T10:25:42.769Z,2.35
2018-12-17T10:28:10.330Z,2.36
2018-12-17T10:30:37.978Z,2.46
2018-12-17T10:33:05.671Z,2.55
2018-12-17T10:35:33.310Z,2.72
2018-12-17T10:38:00.891Z,2.82
2018-12-17T10:40:28.765Z,2.92
2018-12-17T10:42:56.356Z,2.98
2018-12-17T10:45:24.069Z,2.95
2018-12-17T10:47:51.688Z,2.97
2018-12-17T10:50:19.281Z,3.02
2018-12-17T10:52:46.875Z,3.02
2018-12-17T10:55:14.428Z,3.04
2018-12-17T10:57:42.123Z,2.89
2018-12-17T11:00:13.219Z,2.78
2018-12-17T11:02:40.844Z,2.64
2018-12-17T11:05:10.473Z,2.58
2018-12-17T11:07:38.036Z,2.61
2018-12-17T11:10:06.589Z,2.60
2018-12-17T11:12:34.142Z,2.68
2018-12-17T11:15:01.803Z,2.64
2018-12-17T11:17:29.400Z,2.61
2018-12-17T11:19:57.008Z,2.66
2018-12-17T11:22:24.664Z,2.71
2018-12-17T11:24:52.256Z,2.78
2018-12-17T11:27:19.932Z,2.85
2018-12-17T11:29:47.510Z,2.88
2018-12-17T11:32:15.989Z,2.82
2018-12-17T11:34:43.597Z,2.86
2018-12-17T11:37:11.205Z,2.91
2018-12-17T11:39:38.771Z,2.94
2018-12-17T11:42:06.409Z,2.99
2018-12-17T11:44:34.016Z,3.03
2018-12-17T11:47:01.629Z,3.10
2018-12-17T11:49:29.245Z,3.19
2018-12-17T11:51:56.801Z,3.21
2018-12-17T11:54:24.416Z,3.28
2018-12-17T11:59:58.693Z,3.28
2018-12-17T12:02:26.647Z,3.32
2018-12-17T12:04:54.302Z,3.29
2018-12-17T12:07:21.872Z,3.23
2018-12-17T12:09:49.461Z,3.21
2018-12-17T12:12:17.121Z,3.18
2018-12-17T12:14:44.717Z,3.18
2018-12-17T12:17:12.279Z,3.22
2018-12-17T12:19:39.827Z,3.27
2018-12-17T12:22:07.798Z,3.16
2018-12-17T12:24:35.648Z,3.05
2018-12-17T12:27:03.269Z,2.99
2018-12-17T12:29:30.860Z,2.99
2018-12-17T12:31:58.477Z,3.01
2018-12-17T12:34:26.258Z,3.06
2018-12-17T12:36:53.887Z,3.07
2018-12-17T12:39:21.457Z,3.06
2018-12-17T12:41:49.053Z,3.07
2018-12-17T12:44:16.621Z,3.07
2018-12-17T12:46:44.188Z,3.09
2018-12-17T12:49:11.772Z,3.00
2018-12-17T12:51:39.344Z,2.89
2018-12-17T12:54:06.965Z,2.88
2018-12-17T12:56:34.510Z,2.80
2018-12-17T12:59:02.066Z,2.83
2018-12-17T13:01:29.695Z,2.89
2018-12-17T13:03:57.346Z,2.91
2018-12-17T13:06:24.891Z,2.95
2018-12-17T13:08:52.542Z,3.03
2018-12-17T13:11:20.129Z,3.01
2018-12-17T13:13:47.740Z,2.82
2018-12-17T13:16:15.332Z,2.83
2018-12-17T13:18:43.043Z,2.89
2018-12-17T13:21:10.658Z,2.96
2018-12-17T13:23:38.660Z,2.99
2018-12-17T13:26:06.534Z,2.96
2018-12-17T13:28:34.259Z,3.01
2018-12-17T13:31:01.875Z,2.98
2018-12-17T13:33:29.500Z,3.00
2018-12-17T13:35:57.087Z,3.01
2018-12-17T13:38:25.044Z,3.06
2018-12-17T13:40:52.611Z,3.02
2018-12-17T13:43:20.951Z,3.04
2018-12-17T13:45:48.526Z,3.09
2018-12-17T13:48:16.210Z,3.09
2018-12-17T13:50:43.831Z,3.08
2018-12-17T13:53:17.361Z,3.04
2018-12-17T13:55:45.042Z,3.04
2018-12-17T13:58:12.685Z,3.09
2018-12-17T14:00:40.493Z,3.05
2018-12-17T14:03:08.425Z,3.06
2018-12-17T14:05:36.071Z,3.04
2018-12-17T14:08:03.625Z,3.08
2018-12-17T14:10:51.051Z,3.12
2018-12-17T14:13:18.813Z,3.08
2018-12-17T14:15:51.963Z,3.05
2018-12-17T14:18:25.891Z,3.05
2018-12-17T14:23:56.273Z,3.01
2018-12-17T14:26:23.892Z,2.99
2018-12-17T14:28:51.534Z,2.93
2018-12-17T14:31:19.259Z,2.92
2018-12-17T14:33:49.590Z,2.89
2018-12-17T14:36:17.444Z,2.89
2018-12-17T14:38:45.014Z,2.90
2018-12-17T14:41:12.672Z,2.90
2018-12-17T14:43:40.269Z,2.89
2018-12-17T14:46:08.040Z,2.87
2018-12-17T14:48:35.890Z,2.84
2018-12-17T14:51:03.533Z,2.81
2018-12-17T14:53:31.106Z,2.84
2018-12-17T14:55:58.804Z,2.83
2018-12-17T14:58:26.361Z,2.78
2018-12-17T15:00:53.978Z,2.79
2018-12-17T15:03:21.571Z,2.81
2018-12-17T15:05:49.238Z,2.86
2018-12-17T15:08:16.846Z,2.82
2018-12-17T15:10:44.515Z,2.85
2018-12-17T15:13:12.213Z,2.85
2018-12-17T15:15:39.779Z,2.80
2018-12-17T15:18:07.523Z,2.80
2018-12-17T15:20:35.154Z,2.83
2018-12-17T15:23:02.748Z,2.89
2018-12-17T15:25:30.551Z,2.91
2018-12-17T15:27:58.207Z,2.87
2018-12-17T15:30:25.988Z,2.83
2018-12-17T15:32:53.739Z,2.77
2018-12-17T15:35:21.562Z,2.79
2018-12-17T15:37:49.193Z,2.79
2018-12-17T15:40:16.752Z,2.78
2018-12-17T15:42:44.366Z,2.78
2018-12-17T15:45:12.260Z,2.78
2018-12-17T15:47:39.854Z,2.83
2018-12-17T15:50:08.141Z,2.81
2018-12-17T15:52:35.793Z,2.79
2018-12-17T15:55:04.074Z,2.84
2018-12-17T15:57:31.623Z,2.84
2018-12-17T15:59:59.230Z,2.83
2018-12-17T16:02:26.828Z,2.83
2018-12-17T16:04:54.432Z,2.84
2018-12-17T16:07:22.840Z,2.90
2018-12-17T16:09:52.566Z,2.93
2018-12-17T16:12:20.354Z,2.95
2018-12-17T16:14:47.929Z,2.98
2018-12-17T16:17:15.607Z,3.02
2018-12-17T16:19:43.226Z,3.03
2018-12-17T16:22:10.799Z,3.04
2018-12-17T16:24:38.495Z,3.04
2018-12-17T16:27:06.210Z,3.06
2018-12-17T16:29:33.855Z,3.08
2018-12-17T16:32:01.628Z,3.10
2018-12-17T16:34:29.307Z,3.09
2018-12-17T16:36:57.101Z,3.10
2018-12-17T16:39:24.891Z,3.12
2018-12-17T16:41:52.548Z,3.30
2018-12-17T16:44:20.155Z,3.28
2018-12-17T16:46:47.769Z,3.20
2018-12-17T16:49:15.384Z,3.20
2018-12-17T16:51:42.952Z,3.15
2018-12-17T16:54:10.597Z,3.06
2018-12-17T16:56:39.112Z,3.12
2018-12-17T16:59:07.656Z,3.17
2018-12-17T17:01:35.306Z,3.14
2018-12-17T17:04:02.899Z,3.16
2018-12-17T17:06:30.584Z,3.20
2018-12-17T17:08:58.961Z,3.23
2018-12-17T17:11:26.721Z,3.26
2018-12-17T17:13:54.310Z,3.27
2018-12-17T17:16:21.944Z,3.29
2018-12-17T17:18:49.633Z,3.33
2018-12-17T17:21:18.477Z,3.35
2018-12-17T17:23:46.190Z,3.34
2018-12-17T17:26:13.799Z,3.43
2018-12-17T17:28:41.397Z,3.41
2018-12-17T17:31:09.451Z,3.42
2018-12-17T17:33:37.017Z,3.40
2018-12-17T17:36:04.647Z,3.39
2018-12-17T17:38:32.336Z,3.38
2018-12-17T17:41:00.028Z,3.37
2018-12-17T17:43:27.652Z,3.39
2018-12-17T17:45:55.246Z,3.36
2018-12-17T17:48:22.822Z,3.34
2018-12-17T17:53:24.375Z,3.35
2018-12-17T17:55:52.326Z,3.34
2018-12-17T17:58:19.898Z,3.30
2018-12-17T18:00:47.606Z,3.31
2018-12-17T18:03:15.202Z,3.31
2018-12-17T18:05:42.776Z,3.27
2018-12-17T18:08:10.372Z,3.27
2018-12-17T18:10:38.220Z,3.27
2018-12-17T18:13:06.274Z,3.27
2018-12-17T18:15:33.822Z,3.31
2018-12-17T18:18:01.933Z,3.33
2018-12-17T18:20:29.589Z,3.35
2018-12-17T18:22:57.279Z,3.35
2018-12-17T18:25:25.012Z,3.37
2018-12-17T18:27:52.599Z,3.38
2018-12-17T18:30:20.239Z,3.40
2018-12-17T18:32:47.879Z,3.45
2018-12-17T18:35:15.508Z,3.40
2018-12-17T18:37:43.464Z,3.39
2018-12-17T18:40:11.049Z,3.40
2018-12-17T18:42:38.751Z,3.42
2018-12-17T18:45:08.356Z,3.39
2018-12-17T18:47:35.973Z,3.38
2018-12-17T18:50:04.352Z,3.38
2018-12-17T18:52:31.979Z,3.43
2018-12-17T18:54:59.660Z,3.37
2018-12-17T18:57:27.289Z,3.32
2018-12-17T18:59:54.849Z,3.33
2018-12-17T19:02:22.517Z,3.31
2018-12-17T19:04:50.152Z,3.31
2018-12-17T19:07:17.771Z,3.36
2018-12-17T19:09:45.386Z,3.39
2018-12-17T19:12:12.974Z,3.42
2018-12-17T19:14:41.034Z,3.42
2018-12-17T19:17:08.647Z,3.41
2018-12-17T19:19:36.309Z,3.42
2018-12-17T19:22:04.022Z,3.42
2018-12-17T19:24:31.615Z,3.42
2018-12-17T19:26:59.253Z,3.41
2018-12-17T19:29:26.879Z,3.42
2018-12-17T19:31:55.083Z,3.45
2018-12-17T19:34:22.717Z,3.49
2018-12-17T19:36:50.325Z,3.50
2018-12-17T19:39:17.913Z,3.56
2018-12-17T19:41:45.627Z,3.59
2018-12-17T19:44:13.458Z,3.56
2018-12-17T19:46:41.057Z,3.57
2018-12-17T19:49:09.042Z,3.54
2018-12-17T19:51:36.623Z,3.55
2018-12-17T19:54:04.235Z,3.57
2018-12-17T19:56:31.895Z,3.54
2018-12-17T19:58:59.549Z,3.50
2018-12-17T20:01:27.126Z,3.52
2018-12-17T20:03:54.729Z,3.54
2018-12-17T20:06:22.368Z,3.58
2018-12-17T20:08:50.047Z,3.54
2018-12-17T20:11:17.724Z,3.50
2018-12-17T20:13:45.349Z,3.49
2018-12-17T20:16:12.966Z,3.51
2018-12-17T20:18:40.588Z,3.54
2018-12-17T20:21:08.216Z,3.52
2018-12-17T20:23:36.224Z,3.53
2018-12-17T20:26:04.269Z,3.50
2018-12-17T20:28:32.661Z,3.51
2018-12-17T20:31:00.444Z,3.51
2018-12-17T20:33:28.056Z,3.45
2018-12-17T20:35:55.822Z,3.46
2018-12-17T20:38:23.744Z,3.48
2018-12-17T20:40:54.490Z,3.47
2018-12-17T20:43:22.210Z,3.43
2018-12-17T20:45:50.059Z,3.42
2018-12-17T20:48:17.678Z,3.42
2018-12-17T20:50:45.289Z,3.44
2018-12-17T20:53:13.167Z,3.49
2018-12-17T20:55:40.865Z,3.50
2018-12-17T20:58:08.443Z,3.54
2018-12-17T21:00:36.105Z,3.51
2018-12-17T21:03:03.842Z,3.49
2018-12-17T21:05:31.441Z,3.48
2018-12-17T21:07:59.200Z,3.41
2018-12-17T21:10:26.870Z,3.43
2018-12-17T21:12:54.818Z,3.46
2018-12-17T21:15:22.448Z,3.46
2018-12-17T21:17:50.021Z,3.44
2018-12-17T21:20:17.617Z,3.43
2018-12-17T21:22:45.229Z,3.47
2018-12-17T21:25:12.878Z,3.52
2018-12-17T21:27:40.425Z,3.47
2018-12-17T21:30:09.135Z,3.48
2018-12-17T21:32:36.885Z,3.49
2018-12-17T21:35:05.621Z,3.51
2018-12-17T21:37:33.267Z,3.55
2018-12-17T21:40:01.256Z,3.59
2018-12-17T21:42:29.137Z,3.61
2018-12-17T21:44:56.691Z,3.63
2018-12-17T21:47:24.346Z,3.61
2018-12-17T21:49:51.901Z,3.62
2018-12-17T21:52:19.511Z,3.60
2018-12-17T21:54:47.646Z,3.64
2018-12-17T21:57:15.614Z,3.61
2018-12-17T21:59:43.315Z,3.60
2018-12-17T22:02:11.817Z,3.59
2018-12-17T22:04:39.437Z,3.58
2018-12-17T22:07:07.022Z,3.60
2018-12-17T22:09:34.661Z,3.63
2018-12-17T22:12:02.253Z,3.64
2018-12-17T22:14:29.885Z,3.61
2018-12-17T22:16:59.594Z,3.58
2018-12-17T22:19:27.515Z,3.58
2018-12-17T22:21:55.086Z,3.60
2018-12-17T22:24:22.972Z,3.61
2018-12-17T22:26:50.843Z,3.62
2018-12-17T22:29:18.797Z,3.61
2018-12-17T22:31:46.526Z,3.61
2018-12-17T22:34:14.164Z,3.61
2018-12-17T22:36:41.712Z,3.63
2018-12-17T22:39:09.320Z,3.62
2018-12-17T22:41:37.229Z,3.61
2018-12-17T22:44:04.799Z,3.58
2018-12-17T22:46:32.389Z,3.60
2018-12-17T22:48:59.973Z,3.59
2018-12-17T22:51:27.545Z,3.53
2018-12-17T22:53:55.142Z,3.54
2018-12-17T22:56:22.684Z,3.61
2018-12-17T22:58:53.350Z,3.58
2018-12-17T23:01:39.065Z,3.58
2018-12-17T23:04:07.498Z,3.59
2018-12-17T23:06:35.099Z,3.55
2018-12-17T23:09:06.425Z,3.55
2018-12-17T23:11:51.733Z,3.52
2018-12-17T23:14:31.130Z,3.54
2018-12-17T23:17:10.865Z,3.53
2018-12-17T23:19:42.631Z,3.50
2018-12-17T23:22:11.065Z,3.54
2018-12-17T23:24:38.822Z,3.49
2018-12-17T23:27:06.837Z,3.47
2018-12-17T23:29:34.806Z,3.47
2018-12-17T23:32:02.417Z,3.42
2018-12-17T23:34:30.331Z,3.43
2018-12-17T23:36:57.952Z,3.44
2018-12-17T23:39:25.520Z,3.42
2018-12-17T23:41:53.114Z,3.43
2018-12-17T23:44:20.698Z,3.43
2018-12-17T23:46:48.661Z,3.41
2018-12-17T23:49:16.263Z,3.38
2018-12-17T23:51:43.855Z,3.41
2018-12-17T23:54:11.499Z,3.37
2018-12-17T23:56:39.148Z,3.34
2018-12-17T23:59:06.981Z,3.35
